createdAt,value
2016-09-08T00:00:39.336Z,989.34
2016-09-08T00:01:39.338Z,989.31
2016-09-08T00:02:39.338Z,989.3
2016-09-08T00:03:39.341Z,989.3
2016-09-08T00:04:39.342Z,989.28
2016-09-08T00:05:39.343Z,989.31
2016-09-08T00:06:39.345Z,989.29
2016-09-08T00:07:39.345Z,989.3
2016-09-08T00:08:39.347Z,989.28
2016-09-08T00:09:39.346Z,989.33
2016-09-08T00:10:39.349Z,989.27
2016-09-08T00:11:39.350Z,989.29
2016-09-08T00:12:39.350Z,989.23
2016-09-08T00:13:39.349Z,989.26
2016-09-08T00:14:39.355Z,989.27
2016-09-08T00:15:39.354Z,989.28
2016-09-08T00:16:39.357Z,989.26
2016-09-08T00:17:39.355Z,989.25
2016-09-08T00:18:39.358Z,989.24
2016-09-08T00:19:39.357Z,989.24
2016-09-08T00:20:39.363Z,989.23
2016-09-08T00:21:39.359Z,989.21
2016-09-08T00:22:39.365Z,989.2
2016-09-08T00:23:39.361Z,989.2
2016-09-08T00:24:39.362Z,989.19
2016-09-08T00:25:39.364Z,989.23
2016-09-08T00:26:39.364Z,989.2
2016-09-08T00:27:39.368Z,989.22
2016-09-08T00:28:39.367Z,989.24
2016-09-08T00:29:39.368Z,989.2
2016-09-08T00:30:39.369Z,989.2
2016-09-08T00:31:39.370Z,989.22
2016-09-08T00:32:39.380Z,989.18
2016-09-08T00:33:39.372Z,989.23
2016-09-08T00:34:39.382Z,989.17
2016-09-08T00:35:39.373Z,989.18
2016-09-08T00:36:39.387Z,989.18
2016-09-08T00:37:39.384Z,989.14
2016-09-08T00:38:39.386Z,989.16
2016-09-08T00:39:39.385Z,989.18
2016-09-08T00:40:39.385Z,989.18
2016-09-08T00:41:39.389Z,989.14
2016-09-08T00:42:39.387Z,989.17
2016-09-08T00:43:39.389Z,989.14
2016-09-08T00:44:39.389Z,989.12
2016-09-08T00:45:39.388Z,989.12
2016-09-08T00:46:39.390Z,989.09
2016-09-08T00:47:39.389Z,989.09
2016-09-08T00:48:39.389Z,989.08
2016-09-08T00:49:39.394Z,989.06
2016-09-08T00:50:39.395Z,989.08
2016-09-08T00:51:39.394Z,989.05
2016-09-08T00:52:39.393Z,989.02
2016-09-08T00:53:39.400Z,989.05
2016-09-08T00:54:39.404Z,989.01
2016-09-08T00:55:39.402Z,989.06
2016-09-08T00:56:39.401Z,989.02
2016-09-08T00:57:39.404Z,989.04
2016-09-08T00:58:39.403Z,989.01
2016-09-08T00:59:39.406Z,989.02
2016-09-08T01:00:39.405Z,989
2016-09-08T01:01:39.404Z,988.99
2016-09-08T01:02:39.409Z,989.01
2016-09-08T01:03:39.406Z,988.98
2016-09-08T01:04:39.406Z,988.98
2016-09-08T01:05:39.409Z,988.98
2016-09-08T01:06:39.409Z,988.94
2016-09-08T01:07:39.410Z,988.91
2016-09-08T01:08:39.409Z,988.89
2016-09-08T01:09:39.410Z,988.91
2016-09-08T01:10:39.410Z,988.86
2016-09-08T01:11:39.410Z,988.85
2016-09-08T01:12:39.411Z,988.85
2016-09-08T01:13:39.414Z,988.85
2016-09-08T01:14:39.414Z,988.85
2016-09-08T01:15:39.416Z,988.85
2016-09-08T01:16:39.415Z,988.84
2016-09-08T01:17:39.416Z,988.86
2016-09-08T01:18:39.417Z,988.85
2016-09-08T01:19:39.418Z,988.88
2016-09-08T01:20:39.418Z,988.84
2016-09-08T01:21:39.420Z,988.82
2016-09-08T01:22:39.419Z,988.84
2016-09-08T01:23:39.423Z,988.83
2016-09-08T01:24:39.420Z,988.83
2016-09-08T01:25:39.423Z,988.85
2016-09-08T01:26:39.423Z,988.84
2016-09-08T01:27:39.423Z,988.83
2016-09-08T01:28:39.425Z,988.86
2016-09-08T01:29:39.433Z,988.8
2016-09-08T01:30:39.441Z,988.84
2016-09-08T01:31:39.426Z,988.84
2016-09-08T01:32:39.428Z,988.83
2016-09-08T01:33:39.427Z,988.82
2016-09-08T01:34:39.428Z,988.8
2016-09-08T01:35:39.428Z,988.81
2016-09-08T01:36:39.431Z,988.78
2016-09-08T01:37:39.429Z,988.82
2016-09-08T01:38:39.430Z,988.8
2016-09-08T01:39:39.430Z,988.82
2016-09-08T01:40:39.433Z,988.82
2016-09-08T01:41:39.433Z,988.82
2016-09-08T01:42:39.433Z,988.83
2016-09-08T01:43:39.434Z,988.85
2016-09-08T01:44:39.434Z,988.85
2016-09-08T01:45:39.437Z,988.83
2016-09-08T01:46:39.435Z,988.81
2016-09-08T01:47:39.436Z,988.84
2016-09-08T01:48:39.435Z,988.81
2016-09-08T01:49:39.441Z,988.76
2016-09-08T01:50:39.437Z,988.79
2016-09-08T01:51:39.439Z,988.78
2016-09-08T01:52:39.437Z,988.77
2016-09-08T01:53:39.440Z,988.73
2016-09-08T01:54:39.439Z,988.74
2016-09-08T01:55:39.440Z,988.73
2016-09-08T01:56:39.440Z,988.76
2016-09-08T01:57:39.441Z,988.78
2016-09-08T01:58:39.442Z,988.75
2016-09-08T01:59:39.442Z,988.75
2016-09-08T02:00:39.442Z,988.75
2016-09-08T02:01:39.443Z,988.77
2016-09-08T02:02:39.443Z,988.72
2016-09-08T02:03:39.444Z,988.72
2016-09-08T02:04:39.445Z,988.69
2016-09-08T02:05:39.444Z,988.71
2016-09-08T02:06:39.446Z,988.7
2016-09-08T02:07:39.448Z,988.69
2016-09-08T02:08:39.450Z,988.7
2016-09-08T02:09:39.447Z,988.7
2016-09-08T02:10:39.447Z,988.7
2016-09-08T02:11:39.449Z,988.71
2016-09-08T02:12:39.448Z,988.75
2016-09-08T02:13:39.448Z,988.73
2016-09-08T02:14:39.450Z,988.68
2016-09-08T02:15:39.450Z,988.66
2016-09-08T02:16:39.451Z,988.7
2016-09-08T02:17:39.451Z,988.69
2016-09-08T02:18:39.452Z,988.74
2016-09-08T02:19:39.452Z,988.74
2016-09-08T02:20:39.455Z,988.75
2016-09-08T02:21:39.452Z,988.72
2016-09-08T02:22:39.454Z,988.78
2016-09-08T02:23:39.455Z,988.75
2016-09-08T02:24:39.454Z,988.76
2016-09-08T02:25:39.455Z,988.73
2016-09-08T02:26:39.455Z,988.7
2016-09-08T02:27:39.456Z,988.69
2016-09-08T02:28:39.457Z,988.73
2016-09-08T02:29:39.457Z,988.71
2016-09-08T02:30:39.458Z,988.74
2016-09-08T02:31:39.458Z,988.72
2016-09-08T02:32:39.460Z,988.74
2016-09-08T02:33:39.459Z,988.67
2016-09-08T02:34:39.459Z,988.7
2016-09-08T02:35:39.459Z,988.7
2016-09-08T02:36:39.458Z,988.7
2016-09-08T02:37:39.461Z,988.68
2016-09-08T02:38:39.459Z,988.72
2016-09-08T02:39:39.460Z,988.65
2016-09-08T02:40:39.460Z,988.71
2016-09-08T02:41:39.461Z,988.65
2016-09-08T02:42:39.461Z,988.69
2016-09-08T02:43:39.462Z,988.69
2016-09-08T02:44:39.462Z,988.67
2016-09-08T02:45:39.462Z,988.64
2016-09-08T02:46:39.462Z,988.63
2016-09-08T02:47:39.462Z,988.67
2016-09-08T02:48:39.463Z,988.67
2016-09-08T02:49:39.465Z,988.64
2016-09-08T02:50:39.463Z,988.65
2016-09-08T02:51:39.464Z,988.69
2016-09-08T02:52:39.466Z,988.68
2016-09-08T02:53:39.465Z,988.68
2016-09-08T02:54:39.467Z,988.69
2016-09-08T02:55:39.466Z,988.68
2016-09-08T02:56:39.470Z,988.69
2016-09-08T02:57:39.465Z,988.69
2016-09-08T02:58:39.465Z,988.64
2016-09-08T02:59:39.467Z,988.68
2016-09-08T03:00:39.467Z,988.68
2016-09-08T03:01:39.466Z,988.69
2016-09-08T03:02:39.469Z,988.67
2016-09-08T03:03:39.467Z,988.63
2016-09-08T03:04:39.468Z,988.67
2016-09-08T03:05:39.470Z,988.71
2016-09-08T03:06:39.469Z,988.7
2016-09-08T03:07:39.472Z,988.68
2016-09-08T03:08:39.471Z,988.71
2016-09-08T03:09:39.469Z,988.7
2016-09-08T03:10:39.475Z,988.69
2016-09-08T03:11:39.472Z,988.7
2016-09-08T03:12:39.470Z,988.7
2016-09-08T03:13:39.474Z,988.7
2016-09-08T03:14:39.473Z,988.66
2016-09-08T03:15:39.469Z,988.7
2016-09-08T03:16:39.475Z,988.69
2016-09-08T03:17:39.474Z,988.72
2016-09-08T03:18:39.470Z,988.75
2016-09-08T03:19:39.468Z,988.74
2016-09-08T03:20:39.474Z,988.75
2016-09-08T03:21:39.478Z,988.78
2016-09-08T03:22:39.470Z,988.79
2016-09-08T03:23:39.472Z,988.76
2016-09-08T03:24:39.471Z,988.76
2016-09-08T03:25:39.470Z,988.7
2016-09-08T03:26:39.472Z,988.72
2016-09-08T03:27:39.479Z,988.76
2016-09-08T03:28:39.471Z,988.76
2016-09-08T03:29:39.478Z,988.68
2016-09-08T03:30:39.475Z,988.73
2016-09-08T03:31:39.475Z,988.74
2016-09-08T03:32:39.475Z,988.77
2016-09-08T03:33:39.477Z,988.75
2016-09-08T03:34:39.479Z,988.75
2016-09-08T03:35:39.476Z,988.76
2016-09-08T03:36:39.478Z,988.75
2016-09-08T03:37:39.480Z,988.72
2016-09-08T03:38:39.476Z,988.73
2016-09-08T03:39:39.480Z,988.69
2016-09-08T03:40:39.480Z,988.71
2016-09-08T03:41:39.474Z,988.67
2016-09-08T03:42:39.469Z,988.67
2016-09-08T03:43:39.480Z,988.64
2016-09-08T03:44:39.474Z,988.63
2016-09-08T03:45:39.482Z,988.62
2016-09-08T03:46:39.482Z,988.62
2016-09-08T03:47:39.473Z,988.62
2016-09-08T03:48:39.485Z,988.6
2016-09-08T03:49:39.469Z,988.59
2016-09-08T03:50:39.470Z,988.52
2016-09-08T03:51:39.471Z,988.57
2016-09-08T03:52:39.467Z,988.57
2016-09-08T03:53:39.486Z,988.55
2016-09-08T03:54:39.473Z,988.52
2016-09-08T03:55:39.470Z,988.55
2016-09-08T03:56:39.473Z,988.6
2016-09-08T03:57:39.470Z,988.6
2016-09-08T03:58:39.469Z,988.6
2016-09-08T03:59:39.469Z,988.65
2016-09-08T04:00:39.468Z,988.65
2016-09-08T04:01:39.469Z,988.64
2016-09-08T04:02:39.468Z,988.64
2016-09-08T04:03:39.469Z,988.66
2016-09-08T04:04:39.472Z,988.7
2016-09-08T04:05:39.470Z,988.7
2016-09-08T04:06:39.470Z,988.7
2016-09-08T04:07:39.469Z,988.74
2016-09-08T04:08:39.468Z,988.75
2016-09-08T04:09:39.468Z,988.71
2016-09-08T04:10:39.470Z,988.72
2016-09-08T04:11:39.469Z,988.75
2016-09-08T04:12:39.474Z,988.75
2016-09-08T04:13:39.472Z,988.74
2016-09-08T04:14:39.467Z,988.73
2016-09-08T04:15:39.475Z,988.73
2016-09-08T04:16:39.468Z,988.71
2016-09-08T04:17:39.468Z,988.72
2016-09-08T04:18:39.467Z,988.69
2016-09-08T04:19:39.465Z,988.71
2016-09-08T04:20:39.466Z,988.67
2016-09-08T04:21:39.465Z,988.69
2016-09-08T04:22:39.465Z,988.67
2016-09-08T04:23:39.466Z,988.65
2016-09-08T04:24:39.467Z,988.72
2016-09-08T04:25:39.466Z,988.68
2016-09-08T04:26:39.465Z,988.75
2016-09-08T04:27:39.465Z,988.67
2016-09-08T04:28:39.464Z,988.73
2016-09-08T04:29:39.464Z,988.69
2016-09-08T04:30:39.463Z,988.68
2016-09-08T04:31:39.466Z,988.69
2016-09-08T04:32:39.463Z,988.71
2016-09-08T04:33:39.463Z,988.69
2016-09-08T04:34:39.462Z,988.71
2016-09-08T04:35:39.463Z,988.72
2016-09-08T04:36:39.463Z,988.74
2016-09-08T04:37:39.462Z,988.73
2016-09-08T04:38:39.464Z,988.74
2016-09-08T04:39:39.462Z,988.74
2016-09-08T04:40:39.462Z,988.75
2016-09-08T04:41:39.462Z,988.75
2016-09-08T04:42:39.463Z,988.77
2016-09-08T04:43:39.464Z,988.78
2016-09-08T04:44:39.463Z,988.75
2016-09-08T04:45:39.463Z,988.73
2016-09-08T04:46:39.464Z,988.78
2016-09-08T04:47:39.463Z,988.78
2016-09-08T04:48:39.461Z,988.79
2016-09-08T04:49:39.465Z,988.81
2016-09-08T04:50:39.464Z,988.8
2016-09-08T04:51:39.474Z,988.81
2016-09-08T04:52:39.467Z,988.84
2016-09-08T04:53:39.466Z,988.8
2016-09-08T04:54:39.467Z,988.83
2016-09-08T04:55:39.467Z,988.86
2016-09-08T04:56:39.467Z,988.88
2016-09-08T04:57:39.469Z,988.85
2016-09-08T04:58:39.469Z,988.9
2016-09-08T04:59:39.461Z,988.91
2016-09-08T05:00:39.472Z,988.93
2016-09-08T05:01:39.469Z,988.94
2016-09-08T05:02:39.473Z,988.94
2016-09-08T05:03:39.463Z,988.96
2016-09-08T05:04:39.470Z,988.93
2016-09-08T05:05:39.463Z,988.92
2016-09-08T05:06:39.463Z,988.94
2016-09-08T05:07:39.466Z,988.93
2016-09-08T05:08:39.463Z,988.92
2016-09-08T05:09:39.465Z,988.88
2016-09-08T05:10:39.465Z,988.89
2016-09-08T05:11:39.464Z,988.92
2016-09-08T05:12:39.463Z,988.89
2016-09-08T05:13:39.465Z,988.91
2016-09-08T05:14:39.464Z,988.94
2016-09-08T05:15:39.465Z,988.96
2016-09-08T05:16:39.467Z,988.97
2016-09-08T05:17:39.463Z,989
2016-09-08T05:18:39.464Z,989
2016-09-08T05:19:39.464Z,989.02
2016-09-08T05:20:39.468Z,989.08
2016-09-08T05:21:39.465Z,989.04
2016-09-08T05:22:39.465Z,989.03
2016-09-08T05:23:39.467Z,989.05
2016-09-08T05:24:39.466Z,989.06
2016-09-08T05:25:39.468Z,989
2016-09-08T05:26:39.468Z,989.05
2016-09-08T05:27:39.473Z,989.02
2016-09-08T05:28:39.470Z,988.94
2016-09-08T05:29:39.487Z,988.98
2016-09-08T05:30:39.488Z,988.93
2016-09-08T05:31:39.472Z,988.91
2016-09-08T05:32:39.474Z,988.91
2016-09-08T05:33:39.475Z,988.96
2016-09-08T05:34:39.476Z,988.92
2016-09-08T05:35:39.477Z,988.94
2016-09-08T05:36:39.487Z,988.9
2016-09-08T05:37:39.482Z,988.92
2016-09-08T05:38:39.490Z,988.93
2016-09-08T05:39:39.488Z,988.88
2016-09-08T05:40:39.494Z,988.93
2016-09-08T05:41:39.490Z,988.94
2016-09-08T05:42:39.489Z,988.99
2016-09-08T05:43:39.492Z,988.95
2016-09-08T05:44:39.495Z,988.96
2016-09-08T05:45:39.494Z,988.95
2016-09-08T05:46:39.495Z,988.94
2016-09-08T05:47:39.498Z,988.95
2016-09-08T05:48:39.499Z,988.98
2016-09-08T05:49:39.504Z,988.98
2016-09-08T05:50:39.501Z,988.96
2016-09-08T05:51:39.502Z,988.94
2016-09-08T05:52:39.504Z,988.93
2016-09-08T05:53:39.504Z,988.92
2016-09-08T05:54:39.507Z,988.93
2016-09-08T05:55:39.507Z,988.95
2016-09-08T05:56:39.507Z,988.96
2016-09-08T05:57:39.517Z,988.93
2016-09-08T05:58:39.514Z,988.92
2016-09-08T05:59:39.517Z,988.96
2016-09-08T06:00:39.517Z,988.91
2016-09-08T06:01:39.523Z,988.95
2016-09-08T06:02:39.518Z,988.94
2016-09-08T06:03:39.521Z,988.88
2016-09-08T06:04:39.520Z,988.9
2016-09-08T06:05:39.521Z,988.86
2016-09-08T06:06:39.521Z,988.85
2016-09-08T06:07:39.522Z,988.87
2016-09-08T06:08:39.522Z,988.87
2016-09-08T06:09:39.526Z,988.93
2016-09-08T06:10:39.522Z,988.9
2016-09-08T06:11:39.526Z,988.92
2016-09-08T06:12:39.530Z,988.9
2016-09-08T06:13:39.529Z,988.9
2016-09-08T06:14:39.529Z,988.87
2016-09-08T06:15:39.526Z,988.93
2016-09-08T06:16:39.598Z,988.9
2016-09-08T06:17:39.529Z,988.94
2016-09-08T06:18:39.528Z,988.96
2016-09-08T06:19:39.530Z,988.92
2016-09-08T06:20:39.530Z,988.96
2016-09-08T06:21:39.532Z,988.97
2016-09-08T06:22:39.532Z,988.92
2016-09-08T06:23:39.533Z,988.95
2016-09-08T06:24:39.535Z,988.96
2016-09-08T06:25:39.537Z,988.99
2016-09-08T06:26:39.536Z,988.94
2016-09-08T06:27:39.541Z,988.91
2016-09-08T06:28:39.538Z,988.95
2016-09-08T06:29:39.539Z,988.99
2016-09-08T06:30:39.541Z,988.92
2016-09-08T06:31:39.542Z,988.95
2016-09-08T06:32:39.544Z,988.95
2016-09-08T06:33:39.544Z,988.95
2016-09-08T06:34:39.546Z,988.95
2016-09-08T06:35:39.550Z,988.89
2016-09-08T06:36:39.552Z,988.9
2016-09-08T06:37:39.551Z,988.93
2016-09-08T06:38:39.553Z,988.94
2016-09-08T06:39:39.573Z,988.9
2016-09-08T06:40:39.557Z,988.94
2016-09-08T06:41:39.575Z,988.96
2016-09-08T06:42:39.562Z,988.92
2016-09-08T06:43:39.575Z,988.88
2016-09-08T06:44:39.576Z,988.92
2016-09-08T06:45:39.578Z,988.9
2016-09-08T06:46:39.579Z,988.91
2016-09-08T06:47:39.580Z,988.85
2016-09-08T06:48:39.579Z,988.86
2016-09-08T06:49:39.583Z,988.88
2016-09-08T06:50:39.586Z,988.84
2016-09-08T06:51:39.589Z,988.85
2016-09-08T06:52:39.593Z,988.87
2016-09-08T06:53:39.626Z,988.87
2016-09-08T06:54:39.607Z,988.86
2016-09-08T06:55:39.606Z,988.83
2016-09-08T06:56:39.616Z,988.88
2016-09-08T06:57:39.615Z,988.86
2016-09-08T06:58:39.621Z,988.82
2016-09-08T06:59:39.626Z,988.8
2016-09-08T07:00:39.636Z,988.79
2016-09-08T07:01:39.646Z,988.77
2016-09-08T07:02:39.647Z,988.76
2016-09-08T07:03:39.646Z,988.76
2016-09-08T07:04:39.651Z,988.73
2016-09-08T07:05:39.656Z,988.73
2016-09-08T07:06:39.662Z,988.68
2016-09-08T07:07:39.666Z,988.69
2016-09-08T07:08:39.672Z,988.69
2016-09-08T07:09:39.675Z,988.71
2016-09-08T07:10:39.680Z,988.74
2016-09-08T07:11:39.686Z,988.79
2016-09-08T07:12:39.695Z,988.74
2016-09-08T07:13:39.698Z,988.72
2016-09-08T07:14:39.699Z,988.71
2016-09-08T07:15:39.702Z,988.75
2016-09-08T07:16:39.708Z,988.69
2016-09-08T07:17:39.712Z,988.72
2016-09-08T07:18:39.716Z,988.71
2016-09-08T07:19:39.721Z,988.71
2016-09-08T07:20:39.724Z,988.74
2016-09-08T07:21:39.729Z,988.69
2016-09-08T07:22:39.735Z,988.73
2016-09-08T07:23:39.740Z,988.68
2016-09-08T07:24:39.743Z,988.67
2016-09-08T07:25:39.748Z,988.65
2016-09-08T07:26:39.760Z,988.66
2016-09-08T07:27:39.760Z,988.67
2016-09-08T07:28:39.764Z,988.67
2016-09-08T07:29:39.776Z,988.67
2016-09-08T07:30:39.776Z,988.67
2016-09-08T07:31:39.782Z,988.66
2016-09-08T07:32:39.789Z,988.66
2016-09-08T07:33:39.793Z,988.68
2016-09-08T07:34:39.800Z,988.7
2016-09-08T07:35:39.805Z,988.72
2016-09-08T07:36:39.811Z,988.72
2016-09-08T07:37:39.820Z,988.73
2016-09-08T07:38:39.826Z,988.75
2016-09-08T07:39:39.831Z,988.79
2016-09-08T07:40:39.837Z,988.76
2016-09-08T07:41:39.843Z,988.76
2016-09-08T07:42:39.850Z,988.78
2016-09-08T07:43:39.858Z,988.76
2016-09-08T07:44:39.868Z,988.76
2016-09-08T07:45:39.871Z,988.76
2016-09-08T07:46:39.876Z,988.76
2016-09-08T07:47:39.883Z,988.76
2016-09-08T07:48:39.891Z,988.77
2016-09-08T07:49:39.897Z,988.74
2016-09-08T07:50:39.903Z,988.7
2016-09-08T07:51:39.907Z,988.73
2016-09-08T07:52:39.914Z,988.76
2016-09-08T07:53:39.917Z,988.72
2016-09-08T07:54:39.925Z,988.74
2016-09-08T07:55:39.930Z,988.72
2016-09-08T07:56:39.935Z,988.77
2016-09-08T07:57:39.944Z,988.76
2016-09-08T07:58:39.943Z,988.77
2016-09-08T07:59:39.948Z,988.77
2016-09-08T08:00:39.952Z,988.75
2016-09-08T08:01:39.957Z,988.7
2016-09-08T08:02:39.961Z,988.72
2016-09-08T08:03:39.972Z,988.73
2016-09-08T08:04:39.969Z,988.67
2016-09-08T08:05:39.978Z,988.64
2016-09-08T08:06:39.980Z,988.63
2016-09-08T08:07:39.986Z,988.64
2016-09-08T08:08:39.990Z,988.66
2016-09-08T08:09:39.995Z,988.65
2016-09-08T08:10:40.004Z,988.64
2016-09-08T08:11:40.006Z,988.63
2016-09-08T08:12:40.018Z,988.6
2016-09-08T08:13:40.019Z,988.61
2016-09-08T08:14:40.024Z,988.64
2016-09-08T08:15:40.030Z,988.6
2016-09-08T08:16:40.043Z,988.62
2016-09-08T08:17:40.047Z,988.57
2016-09-08T08:18:40.048Z,988.53
2016-09-08T08:19:40.055Z,988.53
2016-09-08T08:20:40.060Z,988.53
2016-09-08T08:21:40.068Z,988.54
2016-09-08T08:22:40.073Z,988.53
2016-09-08T08:23:40.080Z,988.52
2016-09-08T08:24:40.086Z,988.47
2016-09-08T08:25:40.092Z,988.5
2016-09-08T08:26:40.109Z,988.49
2016-09-08T08:27:40.110Z,988.51
2016-09-08T08:28:40.123Z,988.45
2016-09-08T08:29:40.123Z,988.48
2016-09-08T08:30:40.126Z,988.46
2016-09-08T08:31:40.130Z,988.48
2016-09-08T08:32:40.138Z,988.47
2016-09-08T08:33:40.143Z,988.46
2016-09-08T08:34:40.155Z,988.44
2016-09-08T08:35:40.157Z,988.47
2016-09-08T08:36:40.163Z,988.43
2016-09-08T08:37:40.169Z,988.42
2016-09-08T08:38:40.175Z,988.39
2016-09-08T08:39:40.181Z,988.39
2016-09-08T08:40:40.186Z,988.35
2016-09-08T08:41:40.190Z,988.35
2016-09-08T08:42:40.202Z,988.36
2016-09-08T08:43:40.215Z,988.33
2016-09-08T08:44:40.214Z,988.33
2016-09-08T08:45:40.210Z,988.32
2016-09-08T08:46:40.214Z,988.33
2016-09-08T08:47:40.226Z,988.33
2016-09-08T08:48:40.224Z,988.36
2016-09-08T08:49:40.228Z,988.38
2016-09-08T08:50:40.232Z,988.35
2016-09-08T08:51:40.237Z,988.38
2016-09-08T08:52:40.241Z,988.35
2016-09-08T08:53:40.247Z,988.34
2016-09-08T08:54:40.251Z,988.35
2016-09-08T08:55:40.265Z,988.36
2016-09-08T08:56:40.264Z,988.34
2016-09-08T08:57:40.281Z,988.31
2016-09-08T08:58:40.277Z,988.34
2016-09-08T08:59:40.292Z,988.36
2016-09-08T09:00:40.281Z,988.32
2016-09-08T09:01:40.288Z,988.3
2016-09-08T09:02:40.294Z,988.26
2016-09-08T09:03:40.290Z,988.26
2016-09-08T09:04:40.294Z,988.29
2016-09-08T09:05:40.297Z,988.28
2016-09-08T09:06:40.315Z,988.29
2016-09-08T09:07:40.304Z,988.31
2016-09-08T09:08:40.309Z,988.3
2016-09-08T09:09:40.314Z,988.3
2016-09-08T09:10:40.317Z,988.26
2016-09-08T09:11:40.330Z,988.27
2016-09-08T09:12:40.330Z,988.25
2016-09-08T09:13:40.347Z,988.22
2016-09-08T09:14:40.333Z,988.2
2016-09-08T09:15:40.555Z,988.22
2016-09-08T09:16:40.345Z,988.19
2016-09-08T09:17:40.360Z,988.19
2016-09-08T09:18:40.360Z,988.16
2016-09-08T09:19:40.360Z,988.17
2016-09-08T09:20:40.360Z,988.19
2016-09-08T09:21:40.366Z,988.16
2016-09-08T09:22:40.368Z,988.19
2016-09-08T09:23:40.371Z,988.18
2016-09-08T09:24:40.377Z,988.16
2016-09-08T09:25:40.380Z,988.18
2016-09-08T09:26:40.385Z,988.1
2016-09-08T09:27:40.388Z,988.08
2016-09-08T09:28:40.392Z,988.08
2016-09-08T09:29:40.397Z,988.04
2016-09-08T09:30:40.400Z,988.07
2016-09-08T09:31:40.405Z,988.09
2016-09-08T09:32:40.408Z,988.12
2016-09-08T09:33:40.412Z,988.04
2016-09-08T09:34:40.427Z,988.03
2016-09-08T09:35:40.427Z,987.98
2016-09-08T09:36:40.425Z,988
2016-09-08T09:37:40.430Z,988.02
2016-09-08T09:38:40.436Z,988.03
2016-09-08T09:39:40.439Z,988.01
2016-09-08T09:40:40.444Z,988
2016-09-08T09:41:40.448Z,988.03
2016-09-08T09:42:40.452Z,988.09
2016-09-08T09:43:40.456Z,988.04
2016-09-08T09:44:40.462Z,988.04
2016-09-08T09:45:40.465Z,988.02
2016-09-08T09:46:40.470Z,988.05
2016-09-08T09:47:40.473Z,988.04
2016-09-08T09:48:40.479Z,988.06
2016-09-08T09:49:40.519Z,988.04
2016-09-08T09:50:40.491Z,988.04
2016-09-08T09:51:40.492Z,988.06
2016-09-08T09:52:40.497Z,988.06
2016-09-08T09:53:40.501Z,988.09
2016-09-08T09:54:40.505Z,988.01
2016-09-08T09:55:40.511Z,988.04
2016-09-08T09:56:40.521Z,988.01
2016-09-08T09:57:40.523Z,987.99
2016-09-08T09:58:40.524Z,988
2016-09-08T09:59:40.529Z,987.94
2016-09-08T10:00:40.533Z,987.9
2016-09-08T10:01:40.539Z,987.99
2016-09-08T10:02:40.544Z,987.99
2016-09-08T10:03:40.568Z,987.94
2016-09-08T10:04:40.559Z,987.94
2016-09-08T10:05:40.558Z,987.93
2016-09-08T10:06:40.561Z,987.93
2016-09-08T10:07:40.566Z,987.89
2016-09-08T10:08:40.570Z,987.89
2016-09-08T10:09:40.575Z,987.88
2016-09-08T10:10:40.582Z,987.85
2016-09-08T10:11:40.586Z,987.87
2016-09-08T10:12:40.592Z,987.83
2016-09-08T10:13:40.597Z,987.81
2016-09-08T10:14:40.607Z,987.83
2016-09-08T10:15:40.604Z,987.82
2016-09-08T10:16:40.610Z,987.81
2016-09-08T10:17:40.614Z,987.82
2016-09-08T10:18:40.619Z,987.81
2016-09-08T10:19:40.624Z,987.76
2016-09-08T10:20:40.628Z,987.76
2016-09-08T10:21:40.634Z,987.75
2016-09-08T10:22:40.639Z,987.76
2016-09-08T10:23:40.643Z,987.76
2016-09-08T10:24:40.649Z,987.71
2016-09-08T10:25:40.654Z,987.7
2016-09-08T10:26:40.659Z,987.7
2016-09-08T10:27:40.663Z,987.64
2016-09-08T10:28:40.670Z,987.7
2016-09-08T10:29:40.673Z,987.71
2016-09-08T10:30:40.687Z,987.61
2016-09-08T10:31:40.687Z,987.69
2016-09-08T10:32:40.694Z,987.63
2016-09-08T10:33:40.695Z,987.65
2016-09-08T10:34:40.698Z,987.66
2016-09-08T10:35:40.704Z,987.64
2016-09-08T10:36:40.709Z,987.64
2016-09-08T10:37:40.715Z,987.65
2016-09-08T10:38:40.719Z,987.66
2016-09-08T10:39:40.724Z,987.64
2016-09-08T10:40:40.731Z,987.67
2016-09-08T10:41:40.736Z,987.68
2016-09-08T10:42:40.746Z,987.67
2016-09-08T10:43:40.754Z,987.61
2016-09-08T10:44:40.751Z,987.67
2016-09-08T10:45:40.755Z,987.65
2016-09-08T10:46:40.763Z,987.61
2016-09-08T10:47:40.767Z,987.61
2016-09-08T10:48:40.774Z,987.6
2016-09-08T10:49:40.778Z,987.56
2016-09-08T10:50:40.782Z,987.53
2016-09-08T10:51:40.788Z,987.56
2016-09-08T10:52:40.792Z,987.54
2016-09-08T10:53:40.803Z,987.5
2016-09-08T10:54:40.805Z,987.54
2016-09-08T10:55:40.809Z,987.49
2016-09-08T10:56:40.814Z,987.51
2016-09-08T10:57:40.820Z,987.49
2016-09-08T10:58:40.825Z,987.48
2016-09-08T10:59:40.838Z,987.51
2016-09-08T11:00:40.834Z,987.5
2016-09-08T11:01:40.840Z,987.46
2016-09-08T11:02:40.846Z,987.44
2016-09-08T11:03:40.852Z,987.43
2016-09-08T11:04:40.857Z,987.43
2016-09-08T11:05:40.868Z,987.45
2016-09-08T11:06:40.873Z,987.45
2016-09-08T11:07:40.876Z,987.48
2016-09-08T11:08:40.879Z,987.45
2016-09-08T11:09:40.887Z,987.44
2016-09-08T11:10:40.893Z,987.48
2016-09-08T11:11:40.896Z,987.5
2016-09-08T11:12:40.903Z,987.5
2016-09-08T11:13:40.908Z,987.52
2016-09-08T11:14:40.914Z,987.57
2016-09-08T11:15:40.920Z,987.56
2016-09-08T11:16:40.931Z,987.55
2016-09-08T11:17:40.931Z,987.57
2016-09-08T11:18:40.937Z,987.52
2016-09-08T11:19:40.943Z,987.55
2016-09-08T11:20:40.948Z,987.54
2016-09-08T11:21:40.955Z,987.5
2016-09-08T11:22:40.959Z,987.52
2016-09-08T11:23:40.965Z,987.49
2016-09-08T11:24:40.971Z,987.47
2016-09-08T11:25:40.988Z,987.49
2016-09-08T11:26:40.989Z,987.52
2016-09-08T11:27:40.993Z,987.51
2016-09-08T11:28:40.997Z,987.54
2016-09-08T11:29:41.012Z,987.58
2016-09-08T11:30:41.006Z,987.56
2016-09-08T11:31:41.015Z,987.55
2016-09-08T11:32:41.026Z,987.58
2016-09-08T11:33:41.027Z,987.59
2016-09-08T11:34:41.030Z,987.61
2016-09-08T11:35:41.034Z,987.55
2016-09-08T11:36:41.050Z,987.55
2016-09-08T11:37:41.054Z,987.57
2016-09-08T11:38:41.054Z,987.61
2016-09-08T11:39:41.058Z,987.55
2016-09-08T11:40:41.070Z,987.59
2016-09-08T11:41:41.071Z,987.6
2016-09-08T11:42:41.084Z,987.55
2016-09-08T11:43:41.084Z,987.57
2016-09-08T11:44:41.097Z,987.56
2016-09-08T11:45:41.096Z,987.58
2016-09-08T11:46:41.099Z,987.5
2016-09-08T11:47:41.103Z,987.51
2016-09-08T11:48:41.109Z,987.55
2016-09-08T11:49:41.115Z,987.46
2016-09-08T11:50:41.121Z,987.47
2016-09-08T11:51:41.126Z,987.43
2016-09-08T11:52:41.132Z,987.48
2016-09-08T11:53:41.138Z,987.5
2016-09-08T11:54:41.146Z,987.48
2016-09-08T11:55:41.150Z,987.51
2016-09-08T11:56:41.156Z,987.45
2016-09-08T11:57:41.161Z,987.44
2016-09-08T11:58:41.168Z,987.46
2016-09-08T11:59:41.173Z,987.47
2016-09-08T12:00:41.179Z,987.4
2016-09-08T12:01:41.188Z,987.46
2016-09-08T12:02:41.188Z,987.44
2016-09-08T12:03:41.195Z,987.44
2016-09-08T12:04:41.200Z,987.49
2016-09-08T12:05:41.206Z,987.48
2016-09-08T12:06:41.211Z,987.47
2016-09-08T12:07:41.218Z,987.44
2016-09-08T12:08:41.224Z,987.42
2016-09-08T12:09:41.229Z,987.45
2016-09-08T12:10:41.236Z,987.44
2016-09-08T12:11:41.240Z,987.46
2016-09-08T12:12:41.253Z,987.44
2016-09-08T12:13:41.252Z,987.43
2016-09-08T12:14:41.257Z,987.43
2016-09-08T12:15:41.262Z,987.47
2016-09-08T12:16:41.268Z,987.48
2016-09-08T12:17:41.274Z,987.43
2016-09-08T12:18:41.280Z,987.46
2016-09-08T12:19:41.285Z,987.46
2016-09-08T12:20:41.292Z,987.44
2016-09-08T12:21:41.296Z,987.45
2016-09-08T12:22:41.302Z,987.44
2016-09-08T12:23:41.309Z,987.42
2016-09-08T12:24:41.314Z,987.39
2016-09-08T12:25:41.319Z,987.41
2016-09-08T12:26:41.326Z,987.43
2016-09-08T12:27:41.331Z,987.39
2016-09-08T12:28:41.336Z,987.36
2016-09-08T12:29:41.343Z,987.38
2016-09-08T12:30:41.348Z,987.33
2016-09-08T12:31:41.353Z,987.34